Time,TemperatureF,DewpointF,PressureIn,WindDirection,WindDirectionDegrees,WindSpeedMPH,WindSpeedGustMPH,Humidity,HourlyPrecipIn,Conditions,Clouds,dailyrainin,SoftwareType,DateUTC
2013-03-25 00:02:00,30.0,28.9,29.20,NE,41,2.0,13.0,96,0.00,,,0.00,meteohub,2013-03-25 05:02:00,
2013-03-25 00:07:00,30.0,28.9,29.21,NE,41,6.0,13.0,96,0.00,,,0.00,meteohub,2013-03-25 05:07:00,
2013-03-25 00:13:00,30.0,29.3,29.21,NE,41,4.0,9.0,97,0.00,,,0.00,meteohub,2013-03-25 05:13:00,
2013-03-25 00:18:00,30.0,29.3,29.21,NE,42,3.0,10.0,97,0.00,,,0.00,meteohub,2013-03-25 05:18:00,
2013-03-25 00:23:00,30.0,29.3,29.21,NE,41,1.0,12.0,97,0.00,,,0.00,meteohub,2013-03-25 05:23:00,
2013-03-25 00:28:00,30.0,29.3,29.21,NE,41,3.0,12.0,97,0.00,,,0.00,meteohub,2013-03-25 05:28:00,
2013-03-25 00:33:00,30.0,29.3,29.21,NE,41,3.0,10.0,97,0.00,,,0.00,meteohub,2013-03-25 05:33:00,
2013-03-25 00:38:00,29.8,29.1,29.21,NE,41,9.0,10.0,97,0.00,,,0.00,meteohub,2013-03-25 05:38:00,
2013-03-25 00:43:00,29.8,28.8,29.21,NE,42,4.0,10.0,96,0.00,,,0.00,meteohub,2013-03-25 05:43:00,
2013-03-25 00:48:00,29.8,29.1,29.21,NE,41,4.0,11.0,97,0.00,,,0.00,meteohub,2013-03-25 05:48:00,
2013-03-25 00:53:00,29.8,29.1,29.21,NE,41,0.0,11.0,97,0.00,,,0.00,meteohub,2013-03-25 05:53:00,
2013-03-25 00:58:00,29.8,29.1,29.21,NE,41,3.0,11.0,97,0.00,,,0.00,meteohub,2013-03-25 05:58:00,
2013-03-25 01:03:00,29.8,29.1,29.21,NE,41,2.0,11.0,97,0.00,,,0.00,meteohub,2013-03-25 06:03:00,
2013-03-25 01:08:00,29.8,29.1,29.21,NE,41,1.0,11.0,97,0.00,,,0.00,meteohub,2013-03-25 06:08:00,
2013-03-25 01:13:00,29.8,29.1,29.21,NE,41,3.0,11.0,97,0.00,,,0.00,meteohub,2013-03-25 06:13:00,
2013-03-25 01:18:00,29.8,29.1,29.21,NE,41,6.0,12.0,97,0.00,,,0.00,meteohub,2013-03-25 06:18:00,
2013-03-25 01:23:00,29.8,29.1,29.21,NE,41,2.0,12.0,97,0.00,,,0.00,meteohub,2013-03-25 06:23:00,
2013-03-25 01:28:00,29.8,29.1,29.21,NE,41,6.0,11.0,97,0.00,,,0.00,meteohub,2013-03-25 06:28:00,
2013-03-25 01:33:00,29.8,29.1,29.21,NE,41,1.0,11.0,97,0.00,,,0.00,meteohub,2013-03-25 06:33:00,
2013-03-25 01:38:00,29.8,29.1,29.21,NE,41,2.0,11.0,97,0.00,,,0.00,meteohub,2013-03-25 06:38:00,
2013-03-25 01:43:00,29.7,28.9,29.21,NE,42,2.0,12.0,97,0.00,,,0.00,meteohub,2013-03-25 06:43:00,
2013-03-25 01:49:00,29.8,29.1,29.21,NE,41,0.0,12.0,97,0.00,,,0.00,meteohub,2013-03-25 06:49:00,
2013-03-25 01:54:00,29.7,28.9,29.21,NE,41,7.0,12.0,97,0.00,,,0.00,meteohub,2013-03-25 06:54:00,
2013-03-25 01:59:00,29.7,28.9,29.21,NE,41,1.0,11.0,97,0.00,,,0.00,meteohub,2013-03-25 06:59:00,
2013-03-25 02:04:00,29.7,28.9,29.21,NE,41,0.0,11.0,97,0.00,,,0.00,meteohub,2013-03-25 07:04:00,
2013-03-25 02:09:00,29.7,28.9,29.21,NE,41,2.0,11.0,97,0.00,,,0.00,meteohub,2013-03-25 07:09:00,
2013-03-25 02:14:00,29.7,28.9,29.21,NE,41,4.0,10.0,97,0.00,,,0.00,meteohub,2013-03-25 07:14:00,
2013-03-25 02:19:00,29.7,28.9,29.21,NE,41,4.0,10.0,97,0.00,,,0.00,meteohub,2013-03-25 07:19:00,
2013-03-25 02:24:00,29.7,28.6,29.21,NE,41,5.0,10.0,96,0.00,,,0.00,meteohub,2013-03-25 07:24:00,
2013-03-25 02:29:00,29.7,28.6,29.21,NE,41,5.0,10.0,96,0.00,,,0.00,meteohub,2013-03-25 07:29:00,
2013-03-25 02:34:00,29.7,28.6,29.21,NE,41,2.0,9.0,96,0.00,,,0.00,meteohub,2013-03-25 07:34:00,
2013-03-25 02:39:00,29.7,28.6,29.21,NE,41,6.0,9.0,96,0.00,,,0.00,meteohub,2013-03-25 07:39:00,
2013-03-25 02:44:00,29.5,28.4,29.21,NE,41,9.0,9.0,96,0.00,,,0.00,meteohub,2013-03-25 07:44:00,
2013-03-25 02:49:00,29.5,28.4,29.21,NE,42,2.0,11.0,96,0.00,,,0.00,meteohub,2013-03-25 07:49:00,
2013-03-25 02:54:00,29.7,28.6,29.21,NE,41,1.0,11.0,96,0.00,,,0.00,meteohub,2013-03-25 07:54:00,
2013-03-25 02:59:00,29.7,28.6,29.21,NE,41,3.0,11.0,96,0.00,,,0.00,meteohub,2013-03-25 07:59:00,
2013-03-25 03:04:00,29.5,28.4,29.21,NE,41,4.0,11.0,96,0.00,,,0.00,meteohub,2013-03-25 08:04:00,
2013-03-25 03:09:00,29.5,28.4,29.21,NE,41,8.0,13.0,96,0.00,,,0.00,meteohub,2013-03-25 08:09:00,
2013-03-25 03:14:00,29.5,28.4,29.21,NE,41,7.0,13.0,96,0.00,,,0.00,meteohub,2013-03-25 08:14:00,
2013-03-25 03:19:00,29.3,28.2,29.21,NE,41,4.0,13.0,96,0.00,,,0.00,meteohub,2013-03-25 08:19:00,
2013-03-25 03:24:00,29.3,28.2,29.21,NE,41,2.0,13.0,96,0.00,,,0.00,meteohub,2013-03-25 08:24:00,
2013-03-25 03:29:00,29.3,28.2,29.21,NE,41,7.0,11.0,96,0.00,,,0.00,meteohub,2013-03-25 08:29:00,
2013-03-25 03:34:00,29.1,28.0,29.21,NE,41,2.0,10.0,96,0.00,,,0.00,meteohub,2013-03-25 08:34:00,
2013-03-25 03:39:00,29.1,28.0,29.21,NE,41,3.0,10.0,96,0.00,,,0.00,meteohub,2013-03-25 08:39:00,
2013-03-25 03:44:00,29.1,28.0,29.21,NE,41,0.0,13.0,96,0.00,,,0.00,meteohub,2013-03-25 08:44:00,
2013-03-25 03:49:00,29.1,28.0,29.21,NE,41,4.0,13.0,96,0.00,,,0.00,meteohub,2013-03-25 08:49:00,
2013-03-25 03:54:00,29.1,28.0,29.21,NE,41,4.0,13.0,96,0.00,,,0.00,meteohub,2013-03-25 08:54:00,
2013-03-25 03:59:00,29.1,28.0,29.21,NE,41,4.0,13.0,96,0.00,,,0.00,meteohub,2013-03-25 08:59:00,
2013-03-25 04:04:00,29.1,28.0,29.21,NE,41,2.0,13.0,96,0.00,,,0.00,meteohub,2013-03-25 09:04:00,
2013-03-25 04:09:00,29.1,28.0,29.21,NE,41,0.0,11.0,96,0.00,,,0.00,meteohub,2013-03-25 09:09:00,
2013-03-25 04:14:00,28.9,27.9,29.21,NE,41,6.0,11.0,96,0.00,,,0.00,meteohub,2013-03-25 09:14:00,
2013-03-25 04:19:00,28.9,27.9,29.21,NE,41,5.0,10.0,96,0.00,,,0.00,meteohub,2013-03-25 09:19:00,
2013-03-25 04:25:00,28.9,27.9,29.21,NE,41,10.0,10.0,96,0.00,,,0.00,meteohub,2013-03-25 09:25:00,
2013-03-25 04:30:00,28.9,27.9,29.21,NE,41,5.0,10.0,96,0.00,,,0.00,meteohub,2013-03-25 09:30:00,
2013-03-25 04:35:00,28.9,27.9,29.21,NE,41,5.0,10.0,96,0.00,,,0.00,meteohub,2013-03-25 09:35:00,
2013-03-25 04:40:00,28.9,27.9,29.21,NE,41,5.0,10.0,96,0.00,,,0.00,meteohub,2013-03-25 09:40:00,
2013-03-25 04:45:00,28.9,27.9,29.21,NE,41,4.0,10.0,96,0.00,,,0.00,meteohub,2013-03-25 09:45:00,
2013-03-25 04:50:00,28.9,27.9,29.21,NE,41,2.0,7.0,96,0.00,,,0.00,meteohub,2013-03-25 09:50:00,
2013-03-25 04:55:00,28.9,27.9,29.21,NE,41,3.0,11.0,96,0.00,,,0.00,meteohub,2013-03-25 09:55:00,
2013-03-25 05:00:00,28.9,27.9,29.22,NE,41,9.0,11.0,96,0.00,,,0.00,meteohub,2013-03-25 10:00:00,
2013-03-25 05:05:00,28.9,27.9,29.22,NE,41,3.0,11.0,96,0.00,,,0.00,meteohub,2013-03-25 10:05:00,
2013-03-25 05:10:00,28.9,27.9,29.22,NE,41,6.0,10.0,96,0.00,,,0.00,meteohub,2013-03-25 10:10:00,
2013-03-25 05:15:00,28.9,27.9,29.22,NE,41,3.0,10.0,96,0.00,,,0.00,meteohub,2013-03-25 10:15:00,
2013-03-25 05:20:00,28.9,27.9,29.22,NE,41,6.0,10.0,96,0.00,,,0.00,meteohub,2013-03-25 10:20:00,
2013-03-25 05:26:00,28.9,27.9,29.22,NE,41,4.0,11.0,96,0.00,,,0.00,meteohub,2013-03-25 10:26:00,
2013-03-25 05:31:00,28.9,27.9,29.22,NE,41,5.0,11.0,96,0.00,,,0.00,meteohub,2013-03-25 10:31:00,
2013-03-25 05:36:00,28.9,27.9,29.22,NE,41,6.0,11.0,96,0.00,,,0.00,meteohub,2013-03-25 10:36:00,
2013-03-25 05:41:00,28.9,27.9,29.22,NE,41,4.0,10.0,96,0.00,,,0.00,meteohub,2013-03-25 10:41:00,
2013-03-25 05:46:00,28.9,27.9,29.22,NE,41,5.0,9.0,96,0.00,,,0.00,meteohub,2013-03-25 10:46:00,
2013-03-25 05:51:00,28.9,27.9,29.23,NE,41,3.0,9.0,96,0.00,,,0.00,meteohub,2013-03-25 10:51:00,
2013-03-25 05:57:00,28.9,27.9,29.23,NE,41,3.0,9.0,96,0.00,,,0.00,meteohub,2013-03-25 10:57:00,
2013-03-25 06:02:00,28.9,27.9,29.23,NE,41,3.0,9.0,96,0.00,,,0.00,meteohub,2013-03-25 11:02:00,
2013-03-25 06:07:00,28.9,27.9,29.23,NE,41,2.0,9.0,96,0.00,,,0.00,meteohub,2013-03-25 11:07:00,
2013-03-25 06:12:00,28.9,27.9,29.24,NE,41,1.0,9.0,96,0.00,,,0.00,meteohub,2013-03-25 11:12:00,
2013-03-25 06:17:00,28.9,27.9,29.23,NE,41,2.0,8.0,96,0.00,,,0.00,meteohub,2013-03-25 11:17:00,
2013-03-25 06:22:00,28.9,27.9,29.24,NE,41,2.0,9.0,96,0.00,,,0.00,meteohub,2013-03-25 11:22:00,
2013-03-25 06:27:00,28.9,27.9,29.24,NE,41,4.0,9.0,96,0.00,,,0.00,meteohub,2013-03-25 11:27:00,
2013-03-25 06:32:00,28.9,27.9,29.24,NE,41,4.0,9.0,96,0.00,,,0.00,meteohub,2013-03-25 11:32:00,
2013-03-25 06:37:00,28.9,27.9,29.24,NE,41,1.0,9.0,96,0.00,,,0.00,meteohub,2013-03-25 11:37:00,
2013-03-25 06:42:00,28.9,27.9,29.24,NE,41,2.0,9.0,96,0.00,,,0.00,meteohub,2013-03-25 11:42:00,
2013-03-25 06:47:00,28.8,27.7,29.24,NE,41,2.0,9.0,96,0.00,,,0.00,meteohub,2013-03-25 11:47:00,
2013-03-25 06:52:00,28.8,27.7,29.25,NE,41,2.0,7.0,96,0.00,,,0.00,meteohub,2013-03-25 11:52:00,
2013-03-25 06:58:00,28.8,27.7,29.25,NE,41,6.0,7.0,96,0.00,,,0.00,meteohub,2013-03-25 11:58:00,
2013-03-25 07:03:00,28.8,27.7,29.25,NE,41,3.0,7.0,96,0.00,,,0.00,meteohub,2013-03-25 12:03:00,
2013-03-25 07:08:00,28.8,27.7,29.25,NE,41,2.0,7.0,96,0.00,,,0.00,meteohub,2013-03-25 12:08:00,
2013-03-25 07:13:00,28.8,27.7,29.25,NE,41,2.0,7.0,96,0.00,,,0.00,meteohub,2013-03-25 12:13:00,
2013-03-25 07:18:00,28.8,27.7,29.26,NE,41,1.0,7.0,96,0.00,,,0.00,meteohub,2013-03-25 12:18:00,
2013-03-25 07:23:00,28.8,27.7,29.26,NE,41,4.0,9.0,96,0.00,,,0.00,meteohub,2013-03-25 12:23:00,
2013-03-25 07:28:00,28.8,27.7,29.26,NE,41,1.0,9.0,96,0.00,,,0.00,meteohub,2013-03-25 12:28:00,
2013-03-25 07:33:00,28.8,27.7,29.26,NE,41,1.0,7.0,96,0.00,,,0.00,meteohub,2013-03-25 12:33:00,
2013-03-25 07:38:00,28.8,27.7,29.26,NE,41,2.0,7.0,96,0.00,,,0.00,meteohub,2013-03-25 12:38:00,
2013-03-25 07:43:00,28.8,27.7,29.26,NE,41,5.0,8.0,96,0.00,,,0.00,meteohub,2013-03-25 12:43:00,
2013-03-25 07:48:00,28.8,27.7,29.27,NE,41,2.0,8.0,96,0.00,,,0.00,meteohub,2013-03-25 12:48:00,
2013-03-25 07:53:00,28.9,27.9,29.27,NE,41,3.0,9.0,96,0.00,,,0.00,meteohub,2013-03-25 12:53:00,
2013-03-25 07:58:00,28.9,27.9,29.27,NE,41,6.0,9.0,96,0.00,,,0.00,meteohub,2013-03-25 12:58:00,
2013-03-25 08:03:00,28.9,27.9,29.27,NE,41,4.0,7.0,96,0.00,,,0.00,meteohub,2013-03-25 13:03:00,
2013-03-25 08:08:00,28.9,27.9,29.27,NE,41,0.0,9.0,96,0.00,,,0.00,meteohub,2013-03-25 13:08:00,
2013-03-25 08:13:00,28.9,27.9,29.27,NE,41,4.0,9.0,96,0.00,,,0.00,meteohub,2013-03-25 13:13:00,
2013-03-25 08:18:00,28.9,27.9,29.27,NE,41,1.0,9.0,96,0.00,,,0.00,meteohub,2013-03-25 13:18:00,
2013-03-25 08:23:00,28.9,27.9,29.28,NE,41,2.0,7.0,96,0.00,,,0.00,meteohub,2013-03-25 13:23:00,
2013-03-25 08:28:00,29.1,28.0,29.28,NE,41,3.0,9.0,96,0.00,,,0.00,meteohub,2013-03-25 13:28:00,
2013-03-25 08:33:00,29.1,28.0,29.29,NE,41,5.0,9.0,96,0.00,,,0.00,meteohub,2013-03-25 13:33:00,
2013-03-25 08:38:00,29.1,28.0,29.29,NE,41,5.0,9.0,96,0.00,,,0.00,meteohub,2013-03-25 13:38:00,
2013-03-25 08:44:00,29.1,28.0,29.29,NE,41,4.0,7.0,96,0.00,,,0.00,meteohub,2013-03-25 13:44:00,
2013-03-25 08:49:00,29.3,28.2,29.29,NE,41,3.0,10.0,96,0.00,,,0.00,meteohub,2013-03-25 13:49:00,
2013-03-25 08:54:00,29.3,28.2,29.29,NE,41,2.0,10.0,96,0.00,,,0.00,meteohub,2013-03-25 13:54:00,
2013-03-25 08:59:00,29.5,28.4,29.30,NE,41,4.0,9.0,96,0.00,,,0.00,meteohub,2013-03-25 13:59:00,
2013-03-25 09:04:00,29.5,28.4,29.30,NE,41,4.0,9.0,96,0.00,,,0.00,meteohub,2013-03-25 14:04:00,
2013-03-25 09:09:00,29.5,28.4,29.30,NE,41,6.0,10.0,96,0.00,,,0.00,meteohub,2013-03-25 14:09:00,
2013-03-25 09:14:00,29.7,28.6,29.30,NE,41,0.0,10.0,96,0.00,,,0.00,meteohub,2013-03-25 14:14:00,
2013-03-25 09:19:00,29.7,28.6,29.30,NE,41,2.0,10.0,96,0.00,,,0.00,meteohub,2013-03-25 14:19:00,
2013-03-25 09:24:00,29.8,28.8,29.30,NE,41,4.0,9.0,96,0.00,,,0.00,meteohub,2013-03-25 14:24:00,
2013-03-25 09:29:00,29.8,28.8,29.30,NE,41,8.0,8.0,96,0.00,,,0.00,meteohub,2013-03-25 14:29:00,
2013-03-25 09:34:00,29.8,28.8,29.30,NE,41,4.0,10.0,96,0.00,,,0.00,meteohub,2013-03-25 14:34:00,
2013-03-25 09:39:00,29.8,28.8,29.30,North,5,6.0,11.0,96,0.00,,,0.00,meteohub,2013-03-25 14:39:00,
2013-03-25 09:44:00,30.0,28.9,29.31,North,5,4.0,11.0,96,0.00,,,0.00,meteohub,2013-03-25 14:44:00,
2013-03-25 09:49:00,30.0,28.9,29.31,North,5,9.0,11.0,96,0.00,,,0.00,meteohub,2013-03-25 14:49:00,
2013-03-25 09:54:00,30.0,28.9,29.31,North,5,8.0,10.0,96,0.00,,,0.00,meteohub,2013-03-25 14:54:00,
2013-03-25 10:00:00,30.0,28.9,29.31,North,5,3.0,11.0,96,0.00,,,0.00,meteohub,2013-03-25 15:00:00,
2013-03-25 10:05:00,30.4,29.7,29.31,NW,309,10.0,11.0,97,0.00,,,0.00,meteohub,2013-03-25 15:05:00,
2013-03-25 10:10:00,30.4,29.3,29.31,NW,314,5.0,11.0,96,0.00,,,0.00,meteohub,2013-03-25 15:10:00,
2013-03-25 10:15:00,30.4,29.3,29.32,NW,319,7.0,12.0,96,0.00,,,0.00,meteohub,2013-03-25 15:15:00,
2013-03-25 10:20:00,30.4,29.3,29.32,NW,317,3.0,13.0,96,0.00,,,0.00,meteohub,2013-03-25 15:20:00,
2013-03-25 10:25:00,30.4,29.3,29.32,WNW,299,3.0,13.0,96,0.00,,,0.00,meteohub,2013-03-25 15:25:00,
2013-03-25 10:30:00,30.6,29.5,29.32,NNW,345,3.0,13.0,96,0.00,,,0.00,meteohub,2013-03-25 15:30:00,
2013-03-25 10:35:00,30.6,29.5,29.33,NW,325,2.0,12.0,96,0.00,,,0.00,meteohub,2013-03-25 15:35:00,
2013-03-25 10:40:00,30.6,29.5,29.33,North,355,4.0,12.0,96,0.00,,,0.00,meteohub,2013-03-25 15:40:00,
2013-03-25 10:45:00,30.7,29.7,29.33,NW,309,9.0,12.0,96,0.00,,,0.00,meteohub,2013-03-25 15:45:00,
2013-03-25 10:50:00,30.7,29.7,29.34,North,5,4.0,12.0,96,0.00,,,0.00,meteohub,2013-03-25 15:50:00,
2013-03-25 10:55:00,30.7,29.7,29.34,North,351,7.0,15.0,96,0.00,,,0.00,meteohub,2013-03-25 15:55:00,
2013-03-25 11:00:00,30.7,29.7,29.34,North,351,11.0,15.0,96,0.00,,,0.00,meteohub,2013-03-25 16:00:00,
2013-03-25 11:05:00,30.7,29.7,29.34,NNW,342,5.0,15.0,96,0.00,,,0.00,meteohub,2013-03-25 16:05:00,
2013-03-25 11:10:00,30.7,29.7,29.34,North,355,4.0,16.0,96,0.00,,,0.00,meteohub,2013-03-25 16:10:00,
2013-03-25 11:15:00,30.9,29.8,29.34,North,355,7.0,16.0,96,0.00,,,0.00,meteohub,2013-03-25 16:15:00,
2013-03-25 11:20:00,30.9,29.8,29.34,NNW,348,4.0,14.0,96,0.00,,,0.00,meteohub,2013-03-25 16:20:00,
2013-03-25 11:25:00,30.9,29.8,29.35,NNW,333,11.0,14.0,96,0.00,,,0.00,meteohub,2013-03-25 16:25:00,
2013-03-25 11:30:00,30.7,29.5,29.35,NNW,336,5.0,15.0,95,0.00,,,0.00,meteohub,2013-03-25 16:30:00,
2013-03-25 11:36:00,30.9,29.7,29.35,North,349,4.0,15.0,95,0.00,,,0.00,meteohub,2013-03-25 16:36:00,
2013-03-25 11:41:00,31.1,29.8,29.35,NW,315,9.0,15.0,95,0.00,,,0.00,meteohub,2013-03-25 16:41:00,
2013-03-25 11:46:00,31.1,29.8,29.35,West,270,6.0,15.0,95,0.00,,,0.00,meteohub,2013-03-25 16:46:00,
2013-03-25 11:51:00,30.9,29.7,29.34,NW,310,6.0,15.0,95,0.00,,,0.00,meteohub,2013-03-25 16:51:00,
2013-03-25 11:56:00,30.7,29.5,29.35,NW,323,8.0,19.0,95,0.00,,,0.00,meteohub,2013-03-25 16:56:00,
2013-03-25 12:01:00,30.9,29.7,29.35,NNW,330,6.0,19.0,95,0.00,,,0.00,meteohub,2013-03-25 17:01:00,
2013-03-25 12:06:00,30.9,29.7,29.35,NNW,346,7.0,19.0,95,0.00,,,0.00,meteohub,2013-03-25 17:06:00,
2013-03-25 12:11:00,31.3,30.0,29.35,NW,325,3.0,15.0,95,0.00,,,0.00,meteohub,2013-03-25 17:11:00,
2013-03-25 12:16:00,31.3,30.0,29.35,NW,319,13.0,17.0,95,0.00,,,0.00,meteohub,2013-03-25 17:16:00,
2013-03-25 12:21:00,31.3,30.0,29.35,NW,313,6.0,17.0,95,0.00,,,0.00,meteohub,2013-03-25 17:21:00,
2013-03-25 12:26:00,31.3,29.8,29.36,NNW,339,11.0,17.0,94,0.00,,,0.00,meteohub,2013-03-25 17:26:00,
2013-03-25 12:31:00,31.5,30.2,29.36,NNE,20,5.0,16.0,95,0.01,,,0.01,meteohub,2013-03-25 17:31:00,
2013-03-25 12:37:00,31.5,30.0,29.36,NW,323,17.0,17.0,94,0.01,,,0.01,meteohub,2013-03-25 17:37:00,
2013-03-25 12:42:00,31.3,29.8,29.36,NNW,346,5.0,17.0,94,0.02,,,0.02,meteohub,2013-03-25 17:42:00,
2013-03-25 12:47:00,31.5,30.0,29.36,NNW,338,3.0,17.0,94,0.02,,,0.02,meteohub,2013-03-25 17:47:00,
2013-03-25 12:52:00,31.5,30.0,29.36,NNW,340,5.0,17.0,94,0.02,,,0.02,meteohub,2013-03-25 17:52:00,
2013-03-25 12:57:00,31.3,29.5,29.36,NNW,331,6.0,14.0,93,0.03,,,0.03,meteohub,2013-03-25 17:57:00,
2013-03-25 13:02:00,31.3,29.5,29.36,NW,308,11.0,14.0,93,0.03,,,0.03,meteohub,2013-03-25 18:02:00,
2013-03-25 13:07:00,30.7,28.8,29.36,NNW,336,6.0,19.0,92,0.04,,,0.04,meteohub,2013-03-25 18:07:00,
2013-03-25 13:12:00,30.9,28.9,29.36,North,10,3.0,19.0,92,0.04,,,0.04,meteohub,2013-03-25 18:12:00,
2013-03-25 13:17:00,30.9,28.6,29.36,WNW,296,11.0,19.0,91,0.05,,,0.05,meteohub,2013-03-25 18:17:00,
2013-03-25 13:22:00,30.7,28.4,29.36,NW,314,10.0,18.0,91,0.05,,,0.05,meteohub,2013-03-25 18:22:00,
2013-03-25 13:27:00,30.7,28.4,29.36,NW,309,13.0,18.0,91,0.05,,,0.05,meteohub,2013-03-25 18:27:00,
2013-03-25 13:32:00,30.6,28.2,29.37,NNW,344,5.0,19.0,91,0.05,,,0.06,meteohub,2013-03-25 18:32:00,
2013-03-25 13:38:00,30.6,28.2,29.37,North,9,4.0,19.0,91,0.05,,,0.06,meteohub,2013-03-25 18:38:00,
2013-03-25 13:43:00,30.7,28.2,29.37,NW,322,15.0,19.0,90,0.05,,,0.07,meteohub,2013-03-25 18:43:00,
2013-03-25 13:48:00,30.7,28.2,29.37,WNW,298,12.0,18.0,90,0.05,,,0.07,meteohub,2013-03-25 18:48:00,
2013-03-25 13:53:00,30.9,28.6,29.37,NW,315,4.0,18.0,91,0.04,,,0.07,meteohub,2013-03-25 18:53:00,
2013-03-25 13:58:00,31.1,28.6,29.36,WNW,301,6.0,18.0,90,0.04,,,0.07,meteohub,2013-03-25 18:58:00,
2013-03-25 14:03:00,31.3,28.8,29.36,NW,311,8.0,18.0,90,0.05,,,0.08,meteohub,2013-03-25 19:03:00,
2013-03-25 14:08:00,31.6,29.1,29.37,North,11,9.0,18.0,90,0.04,,,0.08,meteohub,2013-03-25 19:08:00,
2013-03-25 14:13:00,31.8,28.9,29.37,NNW,348,15.0,20.0,89,0.04,,,0.09,meteohub,2013-03-25 19:13:00,
2013-03-25 14:18:00,31.8,28.9,29.37,NW,311,9.0,20.0,89,0.04,,,0.09,meteohub,2013-03-25 19:18:00,
2013-03-25 14:23:00,31.8,28.9,29.37,WNW,300,13.0,17.0,89,0.04,,,0.09,meteohub,2013-03-25 19:23:00,
2013-03-25 14:28:00,32.2,29.3,29.37,NNW,342,12.0,17.0,89,0.04,,,0.09,meteohub,2013-03-25 19:28:00,
2013-03-25 14:33:00,32.5,29.3,29.38,NNW,345,10.0,17.0,88,0.04,,,0.10,meteohub,2013-03-25 19:33:00,
2013-03-25 14:38:00,32.4,29.1,29.38,NNE,20,12.0,16.0,88,0.05,,,0.11,meteohub,2013-03-25 19:38:00,
2013-03-25 14:43:00,32.5,29.1,29.38,NW,306,14.0,15.0,87,0.04,,,0.11,meteohub,2013-03-25 19:43:00,
2013-03-25 14:48:00,32.5,28.8,29.38,NNW,337,4.0,15.0,86,0.04,,,0.11,meteohub,2013-03-25 19:48:00,
2013-03-25 14:54:00,32.5,28.6,29.38,North,5,6.0,18.0,85,0.04,,,0.11,meteohub,2013-03-25 19:54:00,
2013-03-25 14:59:00,32.5,28.6,29.39,NW,313,12.0,18.0,85,0.04,,,0.11,meteohub,2013-03-25 19:59:00,
2013-03-25 15:04:00,32.4,28.6,29.39,NW,306,12.0,17.0,86,0.04,,,0.12,meteohub,2013-03-25 20:04:00,
2013-03-25 15:09:00,32.4,28.6,29.39,West,279,11.0,20.0,86,0.04,,,0.12,meteohub,2013-03-25 20:09:00,
2013-03-25 15:14:00,32.4,28.4,29.39,WNW,291,13.0,20.0,85,0.03,,,0.12,meteohub,2013-03-25 20:14:00,
2013-03-25 15:19:00,32.2,28.2,29.39,NW,321,5.0,17.0,85,0.04,,,0.13,meteohub,2013-03-25 20:19:00,
2013-03-25 15:24:00,32.4,28.4,29.39,NW,324,10.0,19.0,85,0.04,,,0.13,meteohub,2013-03-25 20:24:00,
2013-03-25 15:29:00,32.4,27.9,29.39,NW,304,10.0,19.0,83,0.03,,,0.13,meteohub,2013-03-25 20:29:00,
2013-03-25 15:34:00,32.4,27.9,29.39,WNW,299,13.0,19.0,83,0.03,,,0.13,meteohub,2013-03-25 20:34:00,
2013-03-25 15:39:00,32.4,27.9,29.39,NNW,330,7.0,19.0,83,0.03,,,0.14,meteohub,2013-03-25 20:39:00,
2013-03-25 15:44:00,32.7,27.9,29.39,NNW,330,9.0,19.0,82,0.03,,,0.14,meteohub,2013-03-25 20:44:00,
2013-03-25 15:49:00,32.7,27.9,29.39,North,355,5.0,18.0,82,0.03,,,0.14,meteohub,2013-03-25 20:49:00,
2013-03-25 15:54:00,32.9,27.7,29.40,NNW,333,13.0,18.0,81,0.03,,,0.14,meteohub,2013-03-25 20:54:00,
2013-03-25 15:59:00,32.7,27.3,29.40,WNW,289,4.0,18.0,80,0.02,,,0.14,meteohub,2013-03-25 20:59:00,
2013-03-25 16:04:00,32.7,26.6,29.40,NW,306,10.0,18.0,78,0.03,,,0.15,meteohub,2013-03-25 21:04:00,
2013-03-25 16:09:00,32.7,26.6,29.40,WNW,297,9.0,19.0,78,0.03,,,0.15,meteohub,2013-03-25 21:09:00,
2013-03-25 16:14:00,32.7,26.2,29.40,WNW,298,14.0,19.0,77,0.02,,,0.15,meteohub,2013-03-25 21:14:00,
2013-03-25 16:19:00,32.7,26.2,29.40,NW,318,7.0,17.0,77,0.02,,,0.15,meteohub,2013-03-25 21:19:00,
2013-03-25 16:24:00,32.9,26.8,29.40,NW,323,4.0,17.0,78,0.02,,,0.15,meteohub,2013-03-25 21:24:00,
2013-03-25 16:29:00,33.1,26.6,29.41,NW,325,6.0,16.0,77,0.02,,,0.15,meteohub,2013-03-25 21:29:00,
2013-03-25 16:34:00,33.1,26.4,29.41,NNW,332,7.0,17.0,76,0.02,,,0.15,meteohub,2013-03-25 21:34:00,
2013-03-25 16:39:00,33.3,26.6,29.41,North,9,6.0,17.0,76,0.01,,,0.15,meteohub,2013-03-25 21:39:00,
2013-03-25 16:45:00,33.3,25.9,29.41,North,5,11.0,17.0,74,0.01,,,0.15,meteohub,2013-03-25 21:45:00,
2013-03-25 16:50:00,33.3,26.2,29.41,NNW,331,11.0,17.0,75,0.01,,,0.15,meteohub,2013-03-25 21:50:00,
2013-03-25 16:55:00,33.1,26.1,29.41,NNW,344,4.0,16.0,75,0.01,,,0.15,meteohub,2013-03-25 21:55:00,
2013-03-25 17:00:00,33.3,26.2,29.41,WNW,300,11.0,16.0,75,0.01,,,0.15,meteohub,2013-03-25 22:00:00,
2013-03-25 17:05:00,33.3,25.9,29.41,NNW,342,9.0,14.0,74,0.00,,,0.15,meteohub,2013-03-25 22:05:00,
2013-03-25 17:10:00,33.3,25.9,29.42,NW,315,10.0,14.0,74,0.00,,,0.15,meteohub,2013-03-25 22:10:00,
2013-03-25 17:15:00,33.1,26.1,29.42,NNW,331,4.0,16.0,75,0.00,,,0.15,meteohub,2013-03-25 22:15:00,
2013-03-25 17:20:00,33.1,26.1,29.42,North,350,3.0,17.0,75,0.00,,,0.15,meteohub,2013-03-25 22:20:00,
2013-03-25 17:25:00,33.1,26.4,29.42,WNW,292,15.0,17.0,76,0.00,,,0.15,meteohub,2013-03-25 22:25:00,
2013-03-25 17:30:00,32.9,25.9,29.42,NW,318,5.0,17.0,75,0.00,,,0.15,meteohub,2013-03-25 22:30:00,
2013-03-25 17:35:00,33.1,26.4,29.43,NNW,335,6.0,16.0,76,0.00,,,0.15,meteohub,2013-03-25 22:35:00,
2013-03-25 17:40:00,33.1,26.4,29.43,NNW,330,6.0,14.0,76,0.00,,,0.15,meteohub,2013-03-25 22:40:00,
2013-03-25 17:45:00,32.9,26.2,29.43,WNW,301,10.0,13.0,76,0.00,,,0.15,meteohub,2013-03-25 22:45:00,
2013-03-25 17:50:00,32.9,26.2,29.43,North,349,5.0,13.0,76,0.00,,,0.15,meteohub,2013-03-25 22:50:00,
2013-03-25 17:55:00,32.7,26.1,29.43,NNW,330,6.0,12.0,76,0.00,,,0.15,meteohub,2013-03-25 22:55:00,
2013-03-25 18:00:00,32.7,26.2,29.43,NNW,329,6.0,11.0,77,0.00,,,0.15,meteohub,2013-03-25 23:00:00,
2013-03-25 18:05:00,32.5,26.1,29.43,NNW,340,4.0,11.0,77,0.01,,,0.16,meteohub,2013-03-25 23:05:00,
2013-03-25 18:10:00,32.5,26.1,29.44,NW,311,8.0,12.0,77,0.01,,,0.16,meteohub,2013-03-25 23:10:00,
2013-03-25 18:15:00,32.5,26.4,29.44,NW,319,4.0,12.0,78,0.01,,,0.16,meteohub,2013-03-25 23:15:00,
2013-03-25 18:20:00,32.5,26.4,29.44,North,355,1.0,12.0,78,0.01,,,0.16,meteohub,2013-03-25 23:20:00,
2013-03-25 18:25:00,32.5,26.4,29.45,NNW,338,1.0,12.0,78,0.01,,,0.16,meteohub,2013-03-25 23:25:00,
2013-03-25 18:30:00,32.4,26.2,29.45,NW,311,5.0,12.0,78,0.01,,,0.16,meteohub,2013-03-25 23:30:00,
2013-03-25 18:35:00,32.4,26.6,29.45,NW,313,4.0,12.0,79,0.01,,,0.16,meteohub,2013-03-25 23:35:00,
2013-03-25 18:41:00,32.4,26.6,29.45,NW,321,3.0,12.0,79,0.01,,,0.16,meteohub,2013-03-25 23:41:00,
2013-03-25 18:46:00,32.4,26.6,29.46,NW,318,3.0,9.0,79,0.01,,,0.16,meteohub,2013-03-25 23:46:00,
2013-03-25 18:51:00,32.4,26.6,29.45,NNE,13,2.0,10.0,79,0.01,,,0.16,meteohub,2013-03-25 23:51:00,
2013-03-25 18:56:00,32.4,26.6,29.46,NNE,13,3.0,12.0,79,0.01,,,0.16,meteohub,2013-03-25 23:56:00,
2013-03-25 19:01:00,32.2,26.4,29.46,North,0,5.0,12.0,79,0.01,,,0.16,meteohub,2013-03-26 00:01:00,
2013-03-25 19:06:00,32.2,26.4,29.46,NW,323,4.0,13.0,79,0.00,,,0.00,meteohub,2013-03-26 00:06:00,
2013-03-25 19:11:00,32.0,26.6,29.47,NNW,346,2.0,13.0,80,0.00,,,0.00,meteohub,2013-03-26 00:11:00,
2013-03-25 19:16:00,31.8,26.4,29.47,NNW,334,2.0,7.0,80,0.00,,,0.00,meteohub,2013-03-26 00:16:00,
2013-03-25 19:21:00,31.8,26.4,29.47,NW,309,4.0,7.0,80,0.00,,,0.00,meteohub,2013-03-26 00:21:00,
2013-03-25 19:27:00,31.6,26.4,29.47,NW,317,1.0,7.0,81,0.00,,,0.00,meteohub,2013-03-26 00:27:00,
2013-03-25 19:32:00,31.6,26.4,29.47,NW,312,3.0,7.0,81,0.00,,,0.00,meteohub,2013-03-26 00:32:00,
2013-03-25 19:37:00,31.6,26.4,29.47,NW,308,1.0,9.0,81,0.00,,,0.00,meteohub,2013-03-26 00:37:00,
2013-03-25 19:42:00,31.5,26.2,29.47,NW,313,4.0,9.0,81,0.00,,,0.00,meteohub,2013-03-26 00:42:00,
2013-03-25 19:47:00,31.5,26.6,29.48,NW,315,3.0,9.0,82,0.00,,,0.00,meteohub,2013-03-26 00:47:00,
2013-03-25 19:52:00,31.3,26.4,29.48,NW,313,4.0,6.0,82,0.00,,,0.00,meteohub,2013-03-26 00:52:00,
2013-03-25 19:57:00,31.3,26.4,29.48,NW,313,3.0,6.0,82,0.00,,,0.00,meteohub,2013-03-26 00:57:00,
2013-03-25 20:02:00,31.3,26.4,29.48,NW,314,5.0,6.0,82,0.00,,,0.00,meteohub,2013-03-26 01:02:00,
2013-03-25 20:07:00,31.3,26.4,29.48,WNW,294,4.0,7.0,82,0.00,,,0.00,meteohub,2013-03-26 01:07:00,
2013-03-25 20:13:00,31.1,26.2,29.49,WNW,301,1.0,7.0,82,0.00,,,0.00,meteohub,2013-03-26 01:13:00,
2013-03-25 20:18:00,31.1,26.6,29.49,NW,307,1.0,7.0,83,0.00,,,0.00,meteohub,2013-03-26 01:18:00,
2013-03-25 20:23:00,31.3,26.8,29.49,WNW,303,3.0,6.0,83,0.00,,,0.00,meteohub,2013-03-26 01:23:00,
2013-03-25 20:28:00,31.3,26.8,29.49,NW,305,3.0,6.0,83,0.00,,,0.00,meteohub,2013-03-26 01:28:00,
2013-03-25 20:33:00,31.3,26.8,29.49,WNW,297,2.0,6.0,83,0.00,,,0.00,meteohub,2013-03-26 01:33:00,
2013-03-25 20:38:00,31.3,26.8,29.49,WNW,296,3.0,6.0,83,0.00,,,0.00,meteohub,2013-03-26 01:38:00,
2013-03-25 20:43:00,31.3,26.8,29.49,WNW,294,2.0,6.0,83,0.00,,,0.00,meteohub,2013-03-26 01:43:00,
2013-03-25 20:48:00,31.3,26.8,29.49,WNW,293,2.0,6.0,83,0.00,,,0.00,meteohub,2013-03-26 01:48:00,
2013-03-25 20:53:00,31.3,26.8,29.49,WNW,294,4.0,6.0,83,0.00,,,0.00,meteohub,2013-03-26 01:53:00,
2013-03-25 20:58:00,31.3,26.8,29.49,WNW,294,0.0,5.0,83,0.00,,,0.00,meteohub,2013-03-26 01:58:00,
2013-03-25 21:03:00,31.3,26.8,29.49,WNW,294,1.0,5.0,83,0.00,,,0.00,meteohub,2013-03-26 02:03:00,
2013-03-25 21:08:00,31.1,26.6,29.49,WNW,293,2.0,5.0,83,0.00,,,0.00,meteohub,2013-03-26 02:08:00,
2013-03-25 21:13:00,31.1,26.6,29.49,WNW,293,0.0,5.0,83,0.00,,,0.00,meteohub,2013-03-26 02:13:00,
2013-03-25 21:18:00,31.1,26.8,29.49,WNW,294,4.0,6.0,84,0.00,,,0.00,meteohub,2013-03-26 02:18:00,
2013-03-25 21:23:00,31.1,26.8,29.50,WNW,284,2.0,7.0,84,0.00,,,0.00,meteohub,2013-03-26 02:23:00,
2013-03-25 21:28:00,31.1,26.8,29.50,WNW,294,5.0,7.0,84,0.00,,,0.00,meteohub,2013-03-26 02:28:00,
2013-03-25 21:33:00,31.3,27.0,29.50,WNW,288,4.0,7.0,84,0.00,,,0.00,meteohub,2013-03-26 02:33:00,
2013-03-25 21:38:00,31.3,27.0,29.50,WNW,288,2.0,7.0,84,0.00,,,0.00,meteohub,2013-03-26 02:38:00,
2013-03-25 21:43:00,31.3,27.0,29.50,WNW,292,3.0,9.0,84,0.00,,,0.00,meteohub,2013-03-26 02:43:00,
2013-03-25 21:48:00,31.3,27.0,29.51,WNW,296,2.0,9.0,84,0.00,,,0.00,meteohub,2013-03-26 02:48:00,
2013-03-25 21:54:00,31.5,27.1,29.51,NW,305,2.0,9.0,84,0.00,,,0.00,meteohub,2013-03-26 02:54:00,
2013-03-25 21:59:00,31.5,27.1,29.51,WNW,294,4.0,11.0,84,0.00,,,0.00,meteohub,2013-03-26 02:59:00,
2013-03-25 22:04:00,31.6,27.3,29.51,WNW,294,4.0,11.0,84,0.00,,,0.00,meteohub,2013-03-26 03:04:00,
2013-03-25 22:09:00,31.6,27.3,29.51,NW,306,4.0,11.0,84,0.00,,,0.00,meteohub,2013-03-26 03:09:00,
2013-03-25 22:14:00,31.8,27.3,29.51,NW,319,4.0,10.0,83,0.00,,,0.00,meteohub,2013-03-26 03:14:00,
2013-03-25 22:19:00,31.8,27.3,29.51,NW,317,3.0,11.0,83,0.00,,,0.00,meteohub,2013-03-26 03:19:00,
2013-03-25 22:24:00,32.0,27.5,29.51,NW,317,5.0,11.0,83,0.00,,,0.00,meteohub,2013-03-26 03:24:00,
2013-03-25 22:29:00,32.0,27.1,29.51,NW,316,8.0,12.0,82,0.00,,,0.00,meteohub,2013-03-26 03:29:00,
2013-03-25 22:34:00,32.2,27.3,29.52,NW,313,6.0,12.0,82,0.00,,,0.00,meteohub,2013-03-26 03:34:00,
2013-03-25 22:39:00,32.2,27.0,29.52,NNW,348,10.0,11.0,81,0.00,,,0.00,meteohub,2013-03-26 03:39:00,
2013-03-25 22:44:00,32.4,27.1,29.52,NW,316,3.0,12.0,81,0.00,,,0.00,meteohub,2013-03-26 03:44:00,
2013-03-25 22:49:00,32.4,27.1,29.52,NW,311,4.0,12.0,81,0.00,,,0.00,meteohub,2013-03-26 03:49:00,
2013-03-25 22:54:00,32.4,27.1,29.52,NW,319,3.0,12.0,81,0.00,,,0.00,meteohub,2013-03-26 03:54:00,
2013-03-25 22:59:00,32.4,27.1,29.52,NW,309,3.0,11.0,81,0.00,,,0.00,meteohub,2013-03-26 03:59:00,
2013-03-25 23:00:00,32.4,27.1,29.52,NW,309,2.0,11.0,81,0.00,,,0.00,meteohub,2013-03-26 04:00:00,
2013-03-25 23:05:00,32.4,27.0,29.52,NW,313,10.0,12.0,80,0.00,,,0.00,meteohub,2013-03-26 04:05:00,
2013-03-25 23:10:00,32.4,27.0,29.52,WNW,298,4.0,12.0,80,0.00,,,0.00,meteohub,2013-03-26 04:10:00,
2013-03-25 23:15:00,32.4,27.0,29.52,NW,318,2.0,12.0,80,0.00,,,0.00,meteohub,2013-03-26 04:15:00,
2013-03-25 23:20:00,32.4,27.0,29.52,NNW,328,5.0,10.0,80,0.00,,,0.00,meteohub,2013-03-26 04:20:00,
2013-03-25 23:25:00,32.4,27.0,29.52,North,355,3.0,7.0,80,0.00,,,0.00,meteohub,2013-03-26 04:25:00,
2013-03-25 23:31:00,32.4,27.0,29.52,NW,325,3.0,12.0,80,0.00,,,0.00,meteohub,2013-03-26 04:31:00,
2013-03-25 23:36:00,32.4,27.0,29.52,NW,323,10.0,12.0,80,0.00,,,0.00,meteohub,2013-03-26 04:36:00,
2013-03-25 23:41:00,32.4,27.0,29.52,NNW,327,4.0,13.0,80,0.00,,,0.00,meteohub,2013-03-26 04:41:00,
2013-03-25 23:47:00,32.4,27.0,29.52,NW,304,3.0,13.0,80,0.00,,,0.00,meteohub,2013-03-26 04:47:00,
2013-03-25 23:52:00,32.4,27.0,29.53,WNW,294,2.0,13.0,80,0.00,,,0.00,meteohub,2013-03-26 04:52:00,
2013-03-25 23:57:00,32.4,27.0,29.52,NW,309,7.0,11.0,80,0.00,,,0.00,meteohub,2013-03-26 04:57:00,